createdAt,value
2022-10-29T00:00:01.304Z,15.9
2022-10-29T00:01:01.876Z,15.9
2022-10-29T00:02:01.545Z,16.1
2022-10-29T00:03:01.161Z,16.1
2022-10-29T00:04:01.725Z,16.1
2022-10-29T00:05:01.298Z,16
2022-10-29T00:06:01.895Z,16
2022-10-29T00:07:01.481Z,15.9
2022-10-29T00:08:01.056Z,15.9
2022-10-29T00:09:01.643Z,15.9
2022-10-29T00:10:01.237Z,16
2022-10-29T00:11:01.796Z,15.9
2022-10-29T00:12:01.391Z,15.9
2022-10-29T00:13:00.947Z,15.9
2022-10-29T00:14:01.528Z,15.9
2022-10-29T00:15:01.121Z,15.8
2022-10-29T00:16:01.694Z,15.8
2022-10-29T00:17:01.287Z,15.7
2022-10-29T00:18:01.859Z,15.7
2022-10-29T00:19:01.434Z,15.6
2022-10-29T00:20:01.056Z,15.5
2022-10-29T00:21:01.593Z,15.5
2022-10-29T00:22:01.206Z,15.6
2022-10-29T00:23:01.748Z,15.5
2022-10-29T00:24:01.321Z,15.5
2022-10-29T00:25:00.895Z,15.6
2022-10-29T00:26:01.475Z,15.6
2022-10-29T00:27:01.065Z,15.4
2022-10-29T00:28:01.633Z,15.3
2022-10-29T00:29:01.208Z,15.3
2022-10-29T00:30:01.779Z,15.3
2022-10-29T00:31:01.351Z,15.4
2022-10-29T00:32:00.967Z,15.6
2022-10-29T00:33:01.507Z,15.6
2022-10-29T00:34:01.087Z,15.6
2022-10-29T00:35:01.667Z,15.6
2022-10-29T00:36:01.246Z,15.6
2022-10-29T00:37:01.841Z,15.6
2022-10-29T00:38:01.457Z,15.6
2022-10-29T00:39:01.035Z,15.6
2022-10-29T00:40:01.614Z,15.6
2022-10-29T00:41:01.195Z,15.5
2022-10-29T00:42:01.768Z,15.4
2022-10-29T00:43:01.362Z,15.4
2022-10-29T00:44:00.930Z,15.4
2022-10-29T00:45:01.504Z,15.4
2022-10-29T00:46:01.076Z,15.5
2022-10-29T00:47:01.651Z,15.4
2022-10-29T00:48:01.245Z,15.5
2022-10-29T00:49:01.857Z,15.5
2022-10-29T00:50:01.428Z,15.5
2022-10-29T00:51:01.003Z,15.5
2022-10-29T00:52:01.577Z,15.4
2022-10-29T00:53:01.170Z,15.4
2022-10-29T00:54:01.772Z,15.4
2022-10-29T00:55:01.345Z,15.5
2022-10-29T00:56:00.920Z,15.5
2022-10-29T00:57:01.497Z,15.5
2022-10-29T00:58:01.072Z,15.5
2022-10-29T00:59:01.667Z,15.5
2022-10-29T01:00:01.240Z,15.5
2022-10-29T01:01:01.815Z,15.5
2022-10-29T01:02:01.492Z,15.5
2022-10-29T01:03:01.066Z,15.6
2022-10-29T01:04:01.552Z,15.5
2022-10-29T01:05:01.130Z,15.6
2022-10-29T01:06:01.702Z,15.5
2022-10-29T01:07:01.281Z,15.5
2022-10-29T01:08:01.851Z,15.5
2022-10-29T01:09:01.441Z,15.5
2022-10-29T01:10:01.039Z,15.5
2022-10-29T01:11:01.602Z,15.5
2022-10-29T01:12:01.178Z,15.4
2022-10-29T01:13:01.750Z,15.5
2022-10-29T01:14:01.347Z,15.4
2022-10-29T01:15:00.905Z,15.5
2022-10-29T01:16:01.480Z,15.5
2022-10-29T01:17:01.057Z,15.5
2022-10-29T01:18:01.631Z,15.5
2022-10-29T01:19:01.327Z,15.5
2022-10-29T01:20:01.782Z,15.5
2022-10-29T01:21:01.358Z,15.5
2022-10-29T01:22:00.948Z,15.4
2022-10-29T01:23:01.520Z,15.4
2022-10-29T01:24:01.108Z,15.4
2022-10-29T01:25:01.698Z,15.4
2022-10-29T01:26:01.299Z,15.4
2022-10-29T01:27:01.842Z,15.3
2022-10-29T01:28:01.416Z,15.2
2022-10-29T01:29:00.988Z,15.2
2022-10-29T01:30:01.582Z,15.1
2022-10-29T01:31:01.155Z,15.1
2022-10-29T01:32:01.730Z,15.1
2022-10-29T01:33:01.305Z,15.1
2022-10-29T01:34:01.879Z,15.1
2022-10-29T01:35:01.480Z,15
2022-10-29T01:36:01.054Z,15
2022-10-29T01:37:01.626Z,14.9
2022-10-29T01:38:01.201Z,15
2022-10-29T01:39:01.773Z,15
2022-10-29T01:40:01.367Z,15
2022-10-29T01:41:00.925Z,14.9
2022-10-29T01:42:01.523Z,14.9
2022-10-29T01:43:01.099Z,14.9
2022-10-29T01:44:01.671Z,14.9
2022-10-29T01:45:01.264Z,14.9
2022-10-29T01:46:01.842Z,14.9
2022-10-29T01:47:01.424Z,14.8
2022-10-29T01:48:00.999Z,14.8
2022-10-29T01:49:01.618Z,14.8
2022-10-29T01:50:01.191Z,14.8
2022-10-29T01:51:01.784Z,14.8
2022-10-29T01:52:01.358Z,14.8
2022-10-29T01:53:00.931Z,14.8
2022-10-29T01:54:01.505Z,14.8
2022-10-29T01:55:01.078Z,14.8
2022-10-29T01:56:01.687Z,14.8
2022-10-29T01:57:01.258Z,14.9
2022-10-29T01:58:01.921Z,14.9
2022-10-29T01:59:01.561Z,14.9
2022-10-29T02:00:01.067Z,14.9
2022-10-29T02:01:01.758Z,14.9
2022-10-29T02:02:01.307Z,14.8
2022-10-29T02:03:02.265Z,14.8
2022-10-29T02:04:01.894Z,14.8
2022-10-29T02:05:01.108Z,14.8
2022-10-29T02:06:01.690Z,14.8
2022-10-29T02:07:01.263Z,14.8
2022-10-29T02:08:01.836Z,14.8
2022-10-29T02:09:01.413Z,14.7
2022-10-29T02:10:00.988Z,14.8
2022-10-29T02:11:01.581Z,14.8
2022-10-29T02:12:01.154Z,14.7
2022-10-29T02:13:01.729Z,14.7
2022-10-29T02:14:01.333Z,14.6
2022-10-29T02:15:01.888Z,14.6
2022-10-29T02:16:01.478Z,14.5
2022-10-29T02:17:01.074Z,14.5
2022-10-29T02:18:01.639Z,14.4
2022-10-29T02:19:01.212Z,14.4
2022-10-29T02:20:01.788Z,14.4
2022-10-29T02:21:01.361Z,14.3
2022-10-29T02:22:00.950Z,14.3
2022-10-29T02:23:01.533Z,14.3
2022-10-29T02:24:01.117Z,14.3
2022-10-29T02:25:01.753Z,14.2
2022-10-29T02:26:01.344Z,14.2
2022-10-29T02:27:00.916Z,14.1
2022-10-29T02:28:01.517Z,14.2
2022-10-29T02:29:01.107Z,14.2
2022-10-29T02:30:01.707Z,14.2
2022-10-29T02:31:01.291Z,14.1
2022-10-29T02:32:01.864Z,14
2022-10-29T02:33:01.460Z,14
2022-10-29T02:34:01.034Z,14
2022-10-29T02:35:01.609Z,14
2022-10-29T02:36:01.183Z,14.1
2022-10-29T02:37:01.756Z,14.1
2022-10-29T02:38:01.352Z,14.1
2022-10-29T02:39:00.915Z,14.2
2022-10-29T02:40:01.495Z,14.2
2022-10-29T02:41:01.071Z,14.2
2022-10-29T02:42:01.646Z,14.3
2022-10-29T02:43:01.239Z,14.3
2022-10-29T02:44:01.821Z,14.2
2022-10-29T02:45:01.403Z,14.2
2022-10-29T02:46:00.997Z,14.2
2022-10-29T02:47:01.549Z,14.3
2022-10-29T02:48:01.143Z,14.2
2022-10-29T02:49:01.717Z,14.2
2022-10-29T02:50:01.327Z,14.3
2022-10-29T02:51:01.865Z,14.3
2022-10-29T02:52:01.446Z,14.3
2022-10-29T02:53:01.035Z,14.2
2022-10-29T02:54:01.615Z,14.3
2022-10-29T02:55:01.194Z,14.3
2022-10-29T02:56:01.762Z,14.3
2022-10-29T02:57:01.337Z,14.3
2022-10-29T02:58:00.917Z,14.3
2022-10-29T02:59:01.514Z,14.3
2022-10-29T03:00:01.091Z,14.3
2022-10-29T03:01:01.670Z,14.4
2022-10-29T03:02:01.375Z,14.3
2022-10-29T03:03:01.892Z,14.3
2022-10-29T03:04:01.492Z,14.3
2022-10-29T03:05:01.080Z,14.3
2022-10-29T03:06:01.648Z,14.3
2022-10-29T03:07:01.223Z,14.3
2022-10-29T03:08:01.796Z,14.3
2022-10-29T03:09:01.393Z,14.3
2022-10-29T03:10:00.952Z,14.3
2022-10-29T03:11:01.522Z,14.2
2022-10-29T03:12:01.103Z,14.1
2022-10-29T03:13:01.678Z,14.2
2022-10-29T03:14:01.276Z,14.1
2022-10-29T03:15:01.859Z,14.1
2022-10-29T03:16:01.450Z,14.2
2022-10-29T03:17:01.026Z,14.1
2022-10-29T03:18:01.621Z,14.1
2022-10-29T03:19:01.196Z,14.1
2022-10-29T03:20:01.787Z,14.1
2022-10-29T03:21:01.362Z,14.2
2022-10-29T03:22:00.938Z,14.2
2022-10-29T03:23:01.512Z,14.2
2022-10-29T03:24:01.085Z,14.2
2022-10-29T03:25:01.678Z,14.2
2022-10-29T03:26:01.252Z,14.2
2022-10-29T03:27:01.854Z,14.2
2022-10-29T03:28:01.429Z,14.2
2022-10-29T03:29:01.003Z,14.2
2022-10-29T03:30:01.578Z,14.1
2022-10-29T03:31:01.153Z,14.1
2022-10-29T03:32:01.755Z,14.1
2022-10-29T03:33:01.328Z,14
2022-10-29T03:34:01.926Z,14
2022-10-29T03:35:01.505Z,14.1
2022-10-29T03:36:01.214Z,14
2022-10-29T03:37:01.672Z,14
2022-10-29T03:38:01.249Z,14
2022-10-29T03:39:01.820Z,14
2022-10-29T03:40:01.395Z,14
2022-10-29T03:41:00.970Z,14
2022-10-29T03:42:01.560Z,14
2022-10-29T03:43:01.147Z,14
2022-10-29T03:44:01.715Z,14
2022-10-29T03:45:01.300Z,14
2022-10-29T03:46:01.871Z,14
2022-10-29T03:47:01.461Z,14
2022-10-29T03:48:01.048Z,14
2022-10-29T03:49:01.620Z,14
2022-10-29T03:50:01.217Z,13.9
2022-10-29T03:51:01.819Z,13.9
2022-10-29T03:52:01.394Z,13.9
2022-10-29T03:53:00.985Z,13.9
2022-10-29T03:54:01.560Z,13.9
2022-10-29T03:55:01.138Z,13.9
2022-10-29T03:56:01.707Z,14
2022-10-29T03:57:01.283Z,13.9
2022-10-29T03:58:01.871Z,13.9
2022-10-29T03:59:01.520Z,13.9
2022-10-29T04:00:01.097Z,13.9
2022-10-29T04:01:01.677Z,13.9
2022-10-29T04:02:01.371Z,13.9
2022-10-29T04:03:01.917Z,13.9
2022-10-29T04:04:01.545Z,13.9
2022-10-29T04:05:01.072Z,13.9
2022-10-29T04:06:01.669Z,13.9
2022-10-29T04:07:01.240Z,14
2022-10-29T04:08:01.867Z,14
2022-10-29T04:09:01.439Z,14
2022-10-29T04:10:01.011Z,14
2022-10-29T04:11:01.602Z,14.1
2022-10-29T04:12:01.179Z,14
2022-10-29T04:13:01.754Z,14
2022-10-29T04:14:01.331Z,14
2022-10-29T04:15:01.906Z,14
2022-10-29T04:16:01.499Z,14.1
2022-10-29T04:17:01.073Z,14
2022-10-29T04:18:01.644Z,14
2022-10-29T04:19:01.216Z,14.1
2022-10-29T04:20:01.789Z,14.1
2022-10-29T04:23:54.508Z,13.9
2022-10-29T04:28:18.069Z,14
2022-10-29T04:29:01.687Z,14
2022-10-29T04:30:01.879Z,13.9
2022-10-29T04:31:01.501Z,14
2022-10-29T04:32:01.088Z,13.9
2022-10-29T04:33:01.643Z,14
2022-10-29T04:34:01.216Z,14.1
2022-10-29T04:35:01.786Z,14.1
2022-10-29T04:36:01.360Z,14.2
2022-10-29T04:37:00.948Z,14.2
2022-10-29T04:38:01.560Z,14.2
2022-10-29T04:39:01.132Z,14.2
2022-10-29T04:40:01.710Z,14.2
2022-10-29T04:41:01.287Z,14.1
2022-10-29T04:42:01.880Z,14.1
2022-10-29T04:43:01.457Z,14.1
2022-10-29T04:44:01.033Z,14
2022-10-29T04:45:01.605Z,14
2022-10-29T04:46:01.180Z,13.9
2022-10-29T04:47:01.785Z,13.9
2022-10-29T04:48:01.359Z,13.9
2022-10-29T04:49:01.013Z,13.8
2022-10-29T04:50:01.513Z,13.8
2022-10-29T04:51:01.440Z,13.8
2022-10-29T04:52:01.688Z,13.8
2022-10-29T04:53:01.280Z,13.8
2022-10-29T04:54:01.873Z,13.8
2022-10-29T04:55:01.447Z,13.8
2022-10-29T04:56:01.035Z,13.8
2022-10-29T04:57:01.657Z,13.8
2022-10-29T04:58:01.250Z,13.8
2022-10-29T04:59:01.816Z,13.8
2022-10-29T05:00:01.392Z,13.8
2022-10-29T05:01:01.053Z,13.8
2022-10-29T05:02:01.571Z,13.8
2022-10-29T05:03:01.162Z,13.7
2022-10-29T05:04:01.729Z,13.8
2022-10-29T05:05:01.305Z,13.7
2022-10-29T05:06:01.884Z,13.7
2022-10-29T05:07:01.476Z,13.7
2022-10-29T05:08:01.048Z,13.7
2022-10-29T05:09:01.625Z,13.6
2022-10-29T05:10:01.241Z,13.5
2022-10-29T05:11:01.784Z,13.5
2022-10-29T05:12:01.378Z,13.5
2022-10-29T05:13:00.960Z,13.6
2022-10-29T05:14:01.521Z,13.6
2022-10-29T05:15:01.098Z,13.6
2022-10-29T05:16:01.670Z,13.7
2022-10-29T05:17:01.348Z,13.7
2022-10-29T05:18:01.830Z,13.6
2022-10-29T05:19:01.403Z,13.7
2022-10-29T05:20:00.977Z,13.7
2022-10-29T05:21:01.570Z,13.8
2022-10-29T05:22:01.153Z,13.8
2022-10-29T05:23:01.728Z,13.7
2022-10-29T05:24:01.320Z,13.7
2022-10-29T05:25:01.894Z,13.8
2022-10-29T05:26:01.494Z,13.9
2022-10-29T05:27:01.074Z,14
2022-10-29T05:28:01.649Z,14.1
2022-10-29T05:29:01.257Z,14.3
2022-10-29T05:30:01.825Z,14.3
2022-10-29T05:31:01.400Z,14.4
2022-10-29T05:32:00.975Z,14.4
2022-10-29T05:33:01.596Z,14.4
2022-10-29T05:34:01.208Z,14.3
2022-10-29T05:35:01.784Z,14.4
2022-10-29T05:36:01.361Z,14.3
2022-10-29T05:37:00.953Z,14.2
2022-10-29T05:38:01.524Z,14.2
2022-10-29T05:39:01.128Z,14.2
2022-10-29T05:40:01.724Z,14.2
2022-10-29T05:41:01.306Z,14.2
2022-10-29T05:42:01.920Z,14.3
2022-10-29T05:43:01.729Z,14.2
2022-10-29T05:44:01.120Z,14.2
2022-10-29T05:45:01.714Z,14.2
2022-10-29T05:46:01.289Z,14.2
2022-10-29T05:47:01.864Z,14.3
2022-10-29T05:48:01.587Z,14.3
2022-10-29T05:49:01.107Z,14.4
2022-10-29T05:50:01.697Z,14.4
2022-10-29T05:51:01.297Z,14.4
2022-10-29T05:52:01.907Z,14.4
2022-10-29T05:53:01.504Z,14.3
2022-10-29T05:54:01.079Z,14.3
2022-10-29T05:55:01.655Z,14.2
2022-10-29T05:56:01.246Z,14.3
2022-10-29T05:57:01.817Z,14.4
2022-10-29T05:58:01.430Z,14.4
2022-10-29T05:59:00.993Z,14.5
2022-10-29T06:00:01.571Z,14.6
2022-10-29T06:01:01.171Z,14.6
2022-10-29T06:02:01.831Z,14.6
2022-10-29T06:03:01.758Z,14.6
2022-10-29T06:04:01.484Z,14.7
2022-10-29T06:05:01.058Z,14.7
2022-10-29T06:06:01.689Z,14.7
2022-10-29T06:07:01.304Z,14.7
2022-10-29T06:08:01.887Z,14.8
2022-10-29T06:09:01.012Z,14.8
2022-10-29T06:10:01.588Z,14.8
2022-10-29T06:11:01.186Z,14.8
2022-10-29T06:12:01.752Z,14.9
2022-10-29T06:13:01.325Z,14.8
2022-10-29T06:14:01.924Z,14.8
2022-10-29T06:15:01.500Z,14.8
2022-10-29T06:16:01.094Z,14.8
2022-10-29T06:17:01.655Z,14.8
2022-10-29T06:18:01.238Z,14.8
2022-10-29T06:19:01.811Z,14.9
2022-10-29T06:20:01.385Z,15
2022-10-29T06:21:00.980Z,15
2022-10-29T06:22:01.563Z,15
2022-10-29T06:23:01.137Z,15
2022-10-29T06:24:01.731Z,15
2022-10-29T06:25:01.305Z,15
2022-10-29T06:26:01.903Z,15.1
2022-10-29T06:27:01.498Z,15.1
2022-10-29T06:28:01.074Z,15.1
2022-10-29T06:29:01.661Z,15.1
2022-10-29T06:30:01.264Z,15.2
2022-10-29T06:31:01.832Z,15.2
2022-10-29T06:32:01.427Z,15.2
2022-10-29T06:33:01.002Z,15.2
2022-10-29T06:34:01.572Z,15.3
2022-10-29T06:35:01.153Z,15.3
2022-10-29T06:36:01.787Z,15.3
2022-10-29T06:37:01.399Z,15.3
2022-10-29T06:38:01.781Z,15.3
2022-10-29T06:39:01.485Z,15.3
2022-10-29T06:40:01.098Z,15.4
2022-10-29T06:41:01.673Z,15.4
2022-10-29T06:42:01.267Z,15.5
2022-10-29T06:43:01.835Z,15.4
2022-10-29T06:44:01.410Z,15.4
2022-10-29T06:45:00.997Z,15.4
2022-10-29T06:46:01.593Z,15.4
2022-10-29T06:47:01.186Z,15.3
2022-10-29T06:48:01.754Z,15.3
2022-10-29T06:49:01.327Z,15.4
2022-10-29T06:50:01.901Z,15.5
2022-10-29T06:51:01.496Z,15.5
2022-10-29T06:52:01.071Z,15.5
2022-10-29T06:53:01.696Z,15.5
2022-10-29T06:54:01.274Z,15.6
2022-10-29T06:55:01.845Z,15.6
2022-10-29T06:56:01.446Z,15.6
2022-10-29T06:57:01.008Z,15.6
2022-10-29T06:58:01.598Z,15.6
2022-10-29T06:59:01.170Z,15.6
2022-10-29T07:00:03.805Z,15.6
2022-10-29T07:01:01.281Z,15.6
2022-10-29T07:02:01.942Z,15.6
2022-10-29T07:03:01.618Z,15.7
2022-10-29T07:04:01.083Z,15.7
2022-10-29T07:05:01.675Z,15.7
2022-10-29T07:06:01.267Z,15.7
2022-10-29T07:07:01.844Z,15.8
2022-10-29T07:08:01.439Z,15.8
2022-10-29T07:09:01.031Z,15.8
2022-10-29T07:10:01.601Z,15.8
2022-10-29T07:11:01.205Z,15.8
2022-10-29T07:12:01.780Z,15.8
2022-10-29T07:13:01.360Z,15.8
2022-10-29T07:14:00.951Z,15.8
2022-10-29T07:15:01.506Z,15.8
2022-10-29T07:16:01.080Z,15.8
2022-10-29T07:17:01.653Z,15.8
2022-10-29T07:18:01.255Z,15.7
2022-10-29T07:19:01.822Z,15.7
2022-10-29T07:20:01.396Z,15.7
2022-10-29T07:21:00.978Z,15.8
2022-10-29T07:22:01.554Z,15.8
2022-10-29T07:23:01.132Z,15.8
2022-10-29T07:24:01.726Z,15.8
2022-10-29T07:25:01.481Z,15.9
2022-10-29T07:26:01.877Z,16
2022-10-29T07:27:01.464Z,16
2022-10-29T07:28:01.332Z,16.1
2022-10-29T07:29:01.639Z,16.1
2022-10-29T07:30:01.238Z,16.1
2022-10-29T07:31:01.813Z,16.2
2022-10-29T07:32:01.392Z,16.3
2022-10-29T07:33:00.971Z,16.3
2022-10-29T07:34:01.571Z,16.3
2022-10-29T07:35:01.169Z,16.3
2022-10-29T07:36:01.726Z,16.4
2022-10-29T07:37:01.303Z,16.4
2022-10-29T07:38:03.744Z,16.5
2022-10-29T07:39:01.418Z,16.5
2022-10-29T07:40:01.011Z,16.5
2022-10-29T07:41:01.600Z,16.5
2022-10-29T07:42:01.179Z,16.5
2022-10-29T07:43:01.753Z,16.4
2022-10-29T07:44:01.331Z,16.4
2022-10-29T07:45:01.924Z,16.5
2022-10-29T07:46:01.501Z,16.4
2022-10-29T07:47:01.079Z,16.5
2022-10-29T07:48:02.644Z,16.5
2022-10-29T07:49:01.890Z,16.6
2022-10-29T07:50:01.521Z,16.5
2022-10-29T07:51:01.106Z,16.6
2022-10-29T07:52:01.683Z,16.7
2022-10-29T07:53:01.302Z,16.7
2022-10-29T07:54:01.850Z,16.8
2022-10-29T07:55:01.439Z,16.8
2022-10-29T07:56:01.031Z,16.8
2022-10-29T07:57:01.595Z,16.9
2022-10-29T07:58:01.174Z,16.8
2022-10-29T07:59:01.757Z,16.9
2022-10-29T08:00:01.337Z,16.9
2022-10-29T08:01:01.969Z,17
2022-10-29T08:02:01.602Z,17
2022-10-29T08:03:01.152Z,17
2022-10-29T08:04:01.728Z,17.1
2022-10-29T08:05:01.306Z,17.1
2022-10-29T08:06:01.925Z,17.2
2022-10-29T08:07:01.501Z,17.1
2022-10-29T08:08:01.234Z,17.1
2022-10-29T08:09:01.659Z,17.2
2022-10-29T08:10:01.234Z,17.2
2022-10-29T08:11:01.823Z,17.2
2022-10-29T08:12:01.401Z,17.2
2022-10-29T08:13:01.308Z,17.2
2022-10-29T08:14:01.308Z,17.2
2022-10-29T08:15:01.888Z,17.2
2022-10-29T08:16:01.479Z,17.3
2022-10-29T08:17:01.053Z,17.3
2022-10-29T08:18:01.630Z,17.3
2022-10-29T08:19:01.205Z,17.3
2022-10-29T08:20:01.776Z,17.3
2022-10-29T08:21:01.370Z,17.3
2022-10-29T08:22:00.963Z,17.3
2022-10-29T08:23:01.863Z,17.4
2022-10-29T08:24:01.168Z,17.4
2022-10-29T08:25:01.743Z,17.4
2022-10-29T08:26:01.336Z,17.5
2022-10-29T08:27:01.914Z,17.5
2022-10-29T08:28:01.511Z,17.5
2022-10-29T08:29:01.114Z,17.5
2022-10-29T08:30:01.690Z,17.6
2022-10-29T08:31:01.291Z,17.7
2022-10-29T08:32:01.873Z,17.7
2022-10-29T08:33:01.795Z,17.7
2022-10-29T08:34:01.101Z,17.7
2022-10-29T08:35:01.680Z,17.7
2022-10-29T08:36:01.275Z,17.7
2022-10-29T08:37:01.852Z,17.8
2022-10-29T08:38:01.452Z,17.9
2022-10-29T08:39:01.015Z,17.9
2022-10-29T08:40:01.588Z,17.9
2022-10-29T08:41:01.181Z,18
2022-10-29T08:42:01.770Z,18.2
2022-10-29T08:43:01.347Z,18.1
2022-10-29T08:45:01.533Z,18.1
2022-10-29T08:46:01.116Z,18.1
2022-10-29T08:47:03.676Z,18.2
2022-10-29T08:48:01.248Z,18.2
2022-10-29T08:49:01.824Z,18.2
2022-10-29T08:50:01.401Z,18.2
2022-10-29T08:51:00.974Z,18.2
2022-10-29T08:52:01.567Z,18.3
2022-10-29T08:54:25.390Z,18.2
2022-10-29T08:55:01.274Z,18.3
2022-10-29T08:56:01.852Z,18.3
2022-10-29T08:57:01.446Z,18.3
2022-10-29T08:58:01.018Z,18.3
2022-10-29T08:59:01.575Z,18.4
2022-10-29T09:00:01.187Z,18.4
2022-10-29T09:01:01.777Z,18.5
2022-10-29T09:02:01.479Z,18.5
2022-10-29T09:03:00.949Z,18.6
2022-10-29T09:04:01.526Z,18.6
2022-10-29T09:05:01.105Z,18.7
2022-10-29T09:06:01.680Z,18.8
2022-10-29T09:07:01.273Z,18.9
2022-10-29T09:08:02.269Z,19
2022-10-29T09:09:01.173Z,19.1
2022-10-29T09:10:01.844Z,19.2
2022-10-29T09:11:01.408Z,19.2
2022-10-29T09:12:00.986Z,19.4
2022-10-29T09:13:01.562Z,19.4
2022-10-29T09:14:01.154Z,19.5
2022-10-29T09:15:01.724Z,19.5
2022-10-29T09:16:01.299Z,19.7
2022-10-29T09:17:01.873Z,19.7
2022-10-29T09:18:01.449Z,19.7
2022-10-29T09:19:01.043Z,19.7
2022-10-29T09:20:01.609Z,19.8
2022-10-29T09:21:01.190Z,19.8
2022-10-29T09:22:01.755Z,19.8
2022-10-29T09:23:01.337Z,19.9
2022-10-29T09:24:01.924Z,19.9
2022-10-29T09:25:01.499Z,19.8
2022-10-29T09:26:01.116Z,19.8
2022-10-29T09:27:04.329Z,19.8
2022-10-29T09:28:01.199Z,19.7
2022-10-29T09:29:01.792Z,19.9
2022-10-29T09:30:01.367Z,20
2022-10-29T09:31:00.940Z,20
2022-10-29T09:32:01.515Z,20
2022-10-29T09:33:01.095Z,20.1
2022-10-29T09:34:01.854Z,20.2
2022-10-29T09:35:01.329Z,20.2
2022-10-29T09:36:01.904Z,20.1
2022-10-29T09:37:01.477Z,20.3
2022-10-29T09:38:01.252Z,20.3
2022-10-29T09:39:01.656Z,20.4
2022-10-29T09:40:01.246Z,20.5
2022-10-29T09:41:01.814Z,20.6
2022-10-29T09:42:01.412Z,20.7
2022-10-29T09:43:00.969Z,20.7
2022-10-29T09:44:01.560Z,20.8
2022-10-29T09:45:01.133Z,20.8
2022-10-29T09:46:01.707Z,20.7
2022-10-29T09:47:04.455Z,20.8
2022-10-29T09:48:01.819Z,20.9
2022-10-29T09:49:01.446Z,21.1
2022-10-29T09:50:03.653Z,21.1
2022-10-29T09:51:01.574Z,21.1
2022-10-29T09:52:01.150Z,21
2022-10-29T09:53:01.728Z,21.1
2022-10-29T09:54:01.320Z,21.1
2022-10-29T09:55:01.095Z,21.1
2022-10-29T09:56:01.479Z,21.1
2022-10-29T09:57:01.060Z,21.1
2022-10-29T09:58:01.659Z,21.1
2022-10-29T09:59:01.234Z,21
2022-10-29T10:00:01.844Z,21
2022-10-29T10:01:01.423Z,21
2022-10-29T10:02:01.047Z,21
2022-10-29T10:03:01.907Z,21
2022-10-29T10:05:01.380Z,20.9
2022-10-29T10:06:00.954Z,20.8
2022-10-29T10:07:01.534Z,20.6
2022-10-29T10:08:01.633Z,20.5
2022-10-29T10:09:01.210Z,20.7
2022-10-29T10:10:01.803Z,20.7
2022-10-29T10:11:01.383Z,20.8
2022-10-29T10:12:00.961Z,21
2022-10-29T10:13:01.534Z,20.9
2022-10-29T10:14:01.135Z,21
2022-10-29T10:15:01.713Z,21
2022-10-29T10:16:01.288Z,21.1
2022-10-29T10:17:01.864Z,21.2
2022-10-29T10:18:01.694Z,21.2
2022-10-29T10:19:01.103Z,21.2
2022-10-29T10:20:01.693Z,21.2
2022-10-29T10:21:01.272Z,21.1
2022-10-29T10:22:01.867Z,21
2022-10-29T10:23:01.443Z,20.9
2022-10-29T10:24:01.018Z,20.9
2022-10-29T10:25:01.598Z,20.9
2022-10-29T10:26:03.670Z,20.9
2022-10-29T10:27:01.726Z,20.9
2022-10-29T10:28:01.314Z,21
2022-10-29T10:29:01.887Z,20.9
2022-10-29T10:30:01.492Z,20.9
2022-10-29T10:31:01.085Z,20.9
2022-10-29T10:32:01.651Z,20.8
2022-10-29T10:33:01.253Z,20.9
2022-10-29T10:34:01.811Z,21
2022-10-29T10:35:01.389Z,21
2022-10-29T10:36:00.968Z,21
2022-10-29T10:37:01.551Z,21
2022-10-29T10:38:01.177Z,21.1
2022-10-29T10:39:01.753Z,21.1
2022-10-29T10:40:01.405Z,21
2022-10-29T10:41:00.986Z,21.1
2022-10-29T10:42:01.576Z,21.2
2022-10-29T10:43:03.081Z,21.2
2022-10-29T10:44:01.700Z,21.2
2022-10-29T10:45:01.276Z,21.2
2022-10-29T10:46:01.878Z,21.3
2022-10-29T10:47:01.465Z,21.4
2022-10-29T10:48:01.474Z,21.6
2022-10-29T10:49:01.273Z,21.6
2022-10-29T10:50:01.850Z,21.8
2022-10-29T10:51:01.427Z,21.8
2022-10-29T10:52:01.000Z,21.9
2022-10-29T10:53:01.575Z,22
2022-10-29T10:54:01.191Z,22
2022-10-29T10:55:01.794Z,22.1
2022-10-29T10:56:01.367Z,22.1
2022-10-29T10:57:01.950Z,22.2
2022-10-29T10:58:01.538Z,22.3
2022-10-29T10:59:01.131Z,22.4
2022-10-29T11:00:01.698Z,22.5
2022-10-29T11:01:01.300Z,22.5
2022-10-29T11:02:02.051Z,22.5
2022-10-29T11:03:01.516Z,22.6
2022-10-29T11:04:01.105Z,22.8
2022-10-29T11:05:03.456Z,22.8
2022-10-29T11:06:01.212Z,22.8
2022-10-29T11:07:01.805Z,22.9
2022-10-29T11:08:01.382Z,22.8
2022-10-29T11:09:00.955Z,22.7
2022-10-29T11:10:01.547Z,22.6
2022-10-29T11:11:01.129Z,22.4
2022-10-29T11:12:01.707Z,22.4
2022-10-29T11:13:01.287Z,22.3
2022-10-29T11:14:01.867Z,22.3
2022-10-29T11:15:01.461Z,22.3
2022-10-29T11:16:01.028Z,22.4
2022-10-29T11:17:01.601Z,22.4
2022-10-29T11:18:01.555Z,22.5
2022-10-29T11:19:01.485Z,22.5
2022-10-29T11:20:01.077Z,22.6
2022-10-29T11:21:01.643Z,22.7
2022-10-29T11:22:01.221Z,22.7
2022-10-29T11:23:01.802Z,22.6
2022-10-29T11:24:01.396Z,22.7
2022-10-29T11:25:00.953Z,22.5
2022-10-29T11:26:01.532Z,22.7
2022-10-29T11:27:01.108Z,22.7
2022-10-29T11:28:01.681Z,22.8
2022-10-29T11:29:01.267Z,22.7
2022-10-29T11:30:01.844Z,22.8
2022-10-29T11:31:01.437Z,23
2022-10-29T11:32:01.015Z,23
2022-10-29T11:33:01.981Z,22.9
2022-10-29T11:34:01.279Z,22.9
2022-10-29T11:35:01.835Z,22.8
2022-10-29T11:36:01.755Z,22.8
2022-10-29T11:37:01.647Z,22.6
2022-10-29T11:38:01.224Z,22.7
2022-10-29T11:39:01.802Z,22.7
2022-10-29T11:40:01.376Z,22.8
2022-10-29T11:41:01.971Z,22.8
2022-10-29T11:42:01.551Z,22.8
2022-10-29T11:43:03.517Z,22.9
2022-10-29T11:44:01.667Z,22.8
2022-10-29T11:45:01.241Z,22.8
2022-10-29T11:46:01.839Z,22.8
2022-10-29T11:47:01.429Z,22.9
2022-10-29T11:48:01.045Z,22.9
2022-10-29T11:49:01.575Z,22.8
2022-10-29T11:50:01.178Z,22.7
2022-10-29T11:51:01.737Z,22.7
2022-10-29T11:52:01.310Z,22.7
2022-10-29T11:53:01.905Z,22.7
2022-10-29T11:54:01.483Z,22.8
2022-10-29T11:55:01.059Z,22.8
2022-10-29T11:56:01.695Z,22.8
2022-10-29T11:57:01.272Z,22.9
2022-10-29T11:58:01.863Z,22.9
2022-10-29T11:59:01.444Z,22.9
2022-10-29T12:00:01.018Z,22.9
2022-10-29T12:01:01.595Z,22.9
2022-10-29T12:02:01.214Z,23
2022-10-29T12:03:01.769Z,23.1
2022-10-29T12:04:01.447Z,23.1
2022-10-29T12:05:01.936Z,23.1
2022-10-29T12:06:01.545Z,23.1
2022-10-29T12:07:01.121Z,23.1
2022-10-29T12:08:01.697Z,23.1
2022-10-29T12:09:01.289Z,23.1
2022-10-29T12:10:01.857Z,23.1
2022-10-29T12:11:01.436Z,23.1
2022-10-29T12:12:01.011Z,23
2022-10-29T12:13:01.584Z,23
2022-10-29T12:14:01.172Z,23
2022-10-29T12:15:01.758Z,23
2022-10-29T12:16:01.339Z,23.1
2022-10-29T12:17:01.917Z,23
2022-10-29T12:18:01.852Z,23.1
2022-10-29T12:19:01.173Z,23
2022-10-29T12:20:01.794Z,23.1
2022-10-29T12:21:01.383Z,23.1
2022-10-29T12:22:01.982Z,23.2
2022-10-29T12:23:03.614Z,23.2
2022-10-29T12:24:01.094Z,23.1
2022-10-29T12:25:01.690Z,23
2022-10-29T12:26:01.264Z,22.9
2022-10-29T12:27:01.843Z,22.9
2022-10-29T12:28:01.416Z,22.9
2022-10-29T12:29:00.987Z,23
2022-10-29T12:30:01.582Z,23
2022-10-29T12:31:01.178Z,23
2022-10-29T12:32:01.732Z,23
2022-10-29T12:33:01.313Z,22.9
2022-10-29T12:34:01.879Z,22.9
2022-10-29T12:35:01.472Z,23
2022-10-29T12:37:01.602Z,22.9
2022-10-29T12:38:01.224Z,22.8
2022-10-29T12:39:01.761Z,22.8
2022-10-29T12:40:01.353Z,22.8
2022-10-29T12:41:01.912Z,22.8
2022-10-29T12:42:01.487Z,22.8
2022-10-29T12:43:01.062Z,22.8
2022-10-29T12:44:01.654Z,22.9
2022-10-29T12:45:01.231Z,22.8
2022-10-29T12:47:01.333Z,22.9
2022-10-29T12:48:01.907Z,23
2022-10-29T12:49:01.498Z,23
2022-10-29T12:50:01.094Z,23.2
2022-10-29T12:51:01.660Z,23.2
2022-10-29T12:52:01.241Z,23.3
2022-10-29T12:53:01.816Z,23.3
2022-10-29T12:54:01.434Z,23.3
2022-10-29T12:55:00.977Z,23.4
2022-10-29T12:56:01.567Z,23.4
2022-10-29T12:57:01.184Z,23.5
2022-10-29T12:58:01.726Z,23.5
2022-10-29T12:59:01.325Z,23.5
2022-10-29T13:00:01.886Z,23.4
2022-10-29T13:01:01.547Z,23.4
2022-10-29T13:02:16.648Z,23.5
2022-10-29T13:03:02.159Z,23.6
2022-10-29T13:04:00.976Z,23.6
2022-10-29T13:05:01.549Z,23.5
2022-10-29T13:06:01.140Z,23.5
2022-10-29T13:07:01.802Z,23.4
2022-10-29T13:08:01.363Z,23.4
2022-10-29T13:09:01.937Z,23.3
2022-10-29T13:10:01.554Z,23.4
2022-10-29T13:11:01.153Z,23.4
2022-10-29T13:12:01.733Z,23.4
2022-10-29T13:13:01.334Z,23.4
2022-10-29T13:14:01.903Z,23.4
2022-10-29T13:15:01.478Z,23.4
2022-10-29T13:16:01.077Z,23.5
2022-10-29T13:17:01.633Z,23.6
2022-10-29T13:18:01.214Z,23.7
2022-10-29T13:19:01.790Z,23.8
2022-10-29T13:20:01.373Z,23.8
2022-10-29T13:21:01.970Z,23.8
2022-10-29T13:22:01.546Z,23.7
2022-10-29T13:23:02.818Z,23.7
2022-10-29T13:24:01.656Z,23.7
2022-10-29T13:25:01.230Z,23.7
2022-10-29T13:26:01.852Z,23.6
2022-10-29T13:27:01.428Z,23.6
2022-10-29T13:28:01.004Z,23.5
2022-10-29T13:29:01.582Z,23.6
2022-10-29T13:30:01.157Z,23.6
2022-10-29T13:31:01.747Z,23.7
2022-10-29T13:32:04.633Z,23.7
2022-10-29T13:33:01.876Z,23.7
2022-10-29T13:34:01.453Z,23.7
2022-10-29T13:35:01.029Z,23.6